Terminal Aerodrome Forecast
Issued by NWS

Current Version | Previous Version | Graphics & Text | Print | Product List | Glossary On
Versions: 1 2 3 4 5 6 7 8 9 10 11 12 13 14 15 16 17 18 19 20 21 22 23 24 25 26
390
FTUS41 KPBZ 282135 AAB
TAFHLG
TAF AMD
KHLG 282135Z 2822/2918 35005KT 5SM BR BKN008
     FM290000 VRB05KT P6SM BKN015
     FM290300 VRB04KT P6SM OVC008
     FM290700 VRB03KT P6SM OVC004
     FM291500 VRB03KT P6SM OVC008=

USA.gov is the U.S. government's official web portal to all federal, state and local government web resources and services.